Time;durP1;ratioP1;P1;durP2;ratioP2;P2;SDS_P1;SDS_P2;PMS_P1;PMS_P2;Temp;Humidity;BMP_temperature;BMP_pressure;BME280_temperature;BME280_humidity;BME280_pressure;Samples;Min_cycle;Max_cycle;Signal;HPM_P1;HPM_P2
2022/09/02 00:01:32;;;;;;;65.00;39.95;;;;;;;16.68;49.21;101571.50;5034382;28;20026;-45
2022/09/02 00:04:04;;;;;;;67.75;41.05;;;;;;;16.66;50.14;101581.53;5033797;28;20045;-47
2022/09/02 00:06:30;;;;;;;89.45;50.95;;;;;;;16.63;49.99;101571.91;5034245;28;20352;-46
2022/09/02 00:08:56;;;;;;;90.05;53.20;;;;;;;16.61;49.82;101568.53;5029321;28;20044;-46
2022/09/02 00:11:26;;;;;;;91.75;55.38;;;;;;;16.56;50.41;101567.25;5033273;28;20410;-45
2022/09/02 00:13:51;;;;;;;90.68;53.05;;;;;;;16.56;50.48;101562.72;5033275;28;20036;-46
2022/09/02 00:16:17;;;;;;;95.95;56.13;;;;;;;16.55;50.19;101565.53;5033703;28;20033;-45
2022/09/02 00:18:43;;;;;;;104.20;59.55;;;;;;;16.53;49.89;101567.53;5033901;28;20021;-48
2022/09/02 00:21:10;;;;;;;96.85;53.90;;;;;;;16.52;50.23;101566.69;5033580;28;20026;-48
2022/09/02 00:23:37;;;;;;;62.00;32.55;;;;;;;16.43;50.51;101560.31;5033749;28;20025;-46
2022/09/02 00:26:03;;;;;;;32.50;17.90;;;;;;;16.43;50.41;101557.63;5033876;28;20022;-46
2022/09/02 00:28:28;;;;;;;22.65;8.95;;;;;;;16.37;50.71;101560.88;5029348;28;20766;-45
2022/09/02 00:30:54;;;;;;;13.30;5.67;;;;;;;16.33;50.62;101562.13;5033392;28;20045;-47
2022/09/02 00:33:19;;;;;;;6.80;3.33;;;;;;;16.29;51.02;101558.03;5033277;28;20292;-48
2022/09/02 00:35:44;;;;;;;5.50;2.50;;;;;;;16.24;51.12;101557.59;5033677;28;20276;-46
2022/09/02 00:38:10;;;;;;;4.38;2.72;;;;;;;16.23;51.27;101556.72;5033644;28;20022;-46
2022/09/02 00:40:36;;;;;;;5.43;2.35;;;;;;;16.20;51.25;101553.47;5032940;28;20558;-48
2022/09/02 00:43:06;;;;;;;9.98;2.47;;;;;;;16.13;51.37;101552.34;5033566;28;20486;-47
2022/09/02 00:45:32;;;;;;;7.28;2.85;;;;;;;16.12;51.56;101556.88;5033467;28;20525;-46
2022/09/02 00:47:57;;;;;;;13.32;5.28;;;;;;;16.06;51.89;101552.03;5033075;28;20021;-47
2022/09/02 00:53:03;;;;;;;14.80;5.78;;;;;;;15.99;52.18;101546.38;5077264;22;20369;-47
2022/09/02 00:55:33;;;;;;;14.23;5.20;;;;;;;15.99;51.95;101549.06;5042741;28;20032;-45
2022/09/02 00:58:08;;;;;;;11.48;5.30;;;;;;;15.94;52.06;101543.25;5051537;28;20055;-47
2022/09/02 01:00:38;;;;;;;10.18;4.13;;;;;;;15.90;52.54;101541.81;5047247;28;20079;-45
2022/09/02 01:03:10;;;;;;;7.35;2.95;;;;;;;15.87;52.23;101539.41;5039206;28;20021;-45
2022/09/02 01:05:44;;;;;;;5.22;2.78;;;;;;;15.83;52.35;101535.31;5051856;28;20036;-46
2022/09/02 01:08:12;;;;;;;9.50;3.08;;;;;;;15.81;52.45;101540.81;5044171;28;20025;-48
2022/09/02 01:10:39;;;;;;;6.40;2.93;;;;;;;15.80;52.49;101536.41;5043633;28;20025;-45
2022/09/02 01:13:08;;;;;;;6.65;2.63;;;;;;;15.75;52.76;101538.63;5051627;28;20379;-47
2022/09/02 01:15:38;;;;;;;5.40;2.40;;;;;;;15.77;52.82;101534.03;5040300;28;20064;-46
2022/09/02 01:18:06;;;;;;;5.85;2.10;;;;;;;15.75;52.80;101532.44;5051409;28;20167;-46
2022/09/02 01:20:32;;;;;;;4.45;2.20;;;;;;;15.71;53.33;101538.03;5051650;28;20028;-48
2022/09/02 01:22:58;;;;;;;5.15;1.73;;;;;;;15.69;52.77;101537.34;5051088;28;20028;-46
2022/09/02 01:25:27;;;;;;;5.40;2.08;;;;;;;15.67;52.93;101541.13;5049249;28;20485;-45
2022/09/02 01:27:58;;;;;;;5.35;2.13;;;;;;;15.65;52.91;101527.88;5045197;28;20029;-45
2022/09/02 01:30:24;;;;;;;6.05;1.90;;;;;;;15.61;52.75;101530.97;5039169;28;20116;-46
2022/09/02 01:32:50;;;;;;;4.63;1.85;;;;;;;15.60;53.48;101527.41;5051308;28;20035;-45
2022/09/02 01:35:16;;;;;;;5.60;2.17;;;;;;;15.58;53.48;101536.59;5043991;28;20453;-47
2022/09/02 01:37:43;;;;;;;3.25;2.08;;;;;;;15.54;53.74;101536.84;5051368;28;20044;-45
2022/09/02 01:40:12;;;;;;;5.43;1.90;;;;;;;15.50;53.64;101539.91;5048565;28;20033;-45
2022/09/02 01:42:39;;;;;;;7.03;1.65;;;;;;;15.50;53.74;101531.88;5046190;28;20075;-46
2022/09/02 01:45:05;;;;;;;4.85;1.98;;;;;;;15.48;53.87;101523.16;5051392;28;20021;-46
2022/09/02 01:47:31;;;;;;;3.63;1.83;;;;;;;15.46;53.63;101523.28;5051526;28;20087;-45
2022/09/02 01:49:57;;;;;;;3.13;1.75;;;;;;;15.46;53.44;101527.78;5049022;28;20032;-46
2022/09/02 01:53:34;;;;;;;3.63;1.80;;;;;;;15.43;53.63;101526.22;5089911;27;20125;-44
2022/09/02 01:55:59;;;;;;;2.88;1.75;;;;;;;15.36;54.15;101523.22;5076264;28;20082;-47
2022/09/02 01:58:25;;;;;;;2.03;1.60;;;;;;;15.36;54.05;101515.19;5072741;28;20478;-44
2022/09/02 02:00:51;;;;;;;5.10;2.03;;;;;;;15.33;54.10;101514.59;5076647;28;20107;-44
2022/09/02 02:03:17;;;;;;;5.15;1.98;;;;;;;15.32;54.48;101524.47;5088967;28;20028;-45
2022/09/02 02:05:42;;;;;;;4.22;1.98;;;;;;;15.30;54.59;101520.22;5084243;28;20020;-44
2022/09/02 02:08:08;;;;;;;4.65;1.90;;;;;;;15.29;54.50;101526.56;5089610;28;20031;-44
2022/09/02 02:10:34;;;;;;;4.43;2.05;;;;;;;15.24;54.66;101529.63;5088717;28;20521;-45
2022/09/02 02:13:01;;;;;;;2.67;1.70;;;;;;;15.24;54.73;101523.41;5085105;28;20036;-46
2022/09/02 02:15:26;;;;;;;6.45;1.98;;;;;;;15.24;54.68;101529.63;5088643;28;20029;-45
2022/09/02 02:17:51;;;;;;;3.58;1.98;;;;;;;15.24;54.65;101523.41;5087445;28;20032;-46
2022/09/02 02:20:19;;;;;;;6.30;2.17;;;;;;;15.16;54.97;101521.41;5083573;28;20546;-45
2022/09/02 02:22:46;;;;;;;5.38;2.00;;;;;;;15.16;54.62;101527.59;5087572;28;20032;-45
2022/09/02 02:25:13;;;;;;;2.28;1.77;;;;;;;15.13;55.29;101516.31;5084591;28;20462;-45
2022/09/02 02:27:39;;;;;;;2.78;2.08;;;;;;;15.11;55.29;101519.13;5089050;28;20060;-45
2022/09/02 02:30:07;;;;;;;2.20;1.75;;;;;;;15.11;55.02;101521.78;5088364;28;20059;-45
2022/09/02 02:32:32;;;;;;;3.90;2.20;;;;;;;15.12;54.85;101519.97;5075922;28;20029;-45
2022/09/02 02:34:58;;;;;;;4.45;1.90;;;;;;;15.08;55.50;101524.72;5080428;28;20599;-44
2022/09/02 02:37:23;;;;;;;5.50;2.50;;;;;;;15.08;55.37;101511.34;5080330;28;20032;-46
2022/09/02 02:39:48;;;;;;;4.25;2.05;;;;;;;15.05;55.41;101506.25;5088320;28;20016;-44
2022/09/02 02:42:13;;;;;;;2.63;1.88;;;;;;;15.03;55.28;101508.22;5073073;28;20044;-45
2022/09/02 02:44:41;;;;;;;7.53;2.10;;;;;;;15.05;55.50;101510.78;5088297;28;20074;-45
2022/09/02 02:47:07;;;;;;;3.33;2.15;;;;;;;15.02;55.24;101514.56;5088598;28;20060;-46
2022/09/02 02:49:39;;;;;;;5.85;2.30;;;;;;;15.03;55.33;101507.38;5088569;28;20027;-46
2022/09/02 02:52:04;;;;;;;2.35;2.08;;;;;;;14.99;55.75;101504.13;5064238;28;20375;-46
2022/09/02 02:54:29;;;;;;;4.55;2.08;;;;;;;15.00;55.54;101503.13;5086500;28;20023;-45
2022/09/02 02:56:55;;;;;;;5.23;2.47;;;;;;;15.01;55.39;101506.69;5082580;28;20541;-45
2022/09/02 02:59:20;;;;;;;5.15;1.90;;;;;;;14.99;55.40;101504.13;5072601;28;20267;-46
2022/09/02 03:01:45;;;;;;;4.85;2.28;;;;;;;15.01;55.59;101504.00;5071459;28;20061;-46
2022/09/02 03:04:11;;;;;;;6.05;1.83;;;;;;;14.99;55.51;101504.13;5057507;28;20421;-46
2022/09/02 03:06:36;;;;;;;2.60;2.10;;;;;;;14.95;55.58;101498.19;5044803;28;20073;-45
2022/09/02 03:09:02;;;;;;;7.28;2.42;;;;;;;14.95;55.46;101498.19;5053760;28;20013;-45
2022/09/02 03:11:27;;;;;;;8.98;2.40;;;;;;;14.96;55.79;101499.03;5048080;28;20036;-45
2022/09/02 03:13:53;;;;;;;5.00;2.58;;;;;;;14.95;55.63;101498.19;5053576;28;20017;-46
2022/09/02 03:16:19;;;;;;;3.83;2.25;;;;;;;14.92;55.75;101498.44;5049688;28;20044;-46
2022/09/02 03:18:46;;;;;;;4.88;2.20;;;;;;;14.92;55.81;101495.78;5055458;28;20108;-46
2022/09/02 03:21:14;;;;;;;3.38;2.10;;;;;;;14.93;55.76;101497.44;5055169;28;20067;-46
2022/09/02 03:23:40;;;;;;;6.07;2.30;;;;;;;14.96;55.59;101501.72;5051708;28;20021;-45
2022/09/02 03:26:18;;;;;;;8.40;2.28;;;;;;;14.95;55.31;101503.53;5055638;28;20037;-46
2022/09/02 03:28:44;;;;;;;4.43;2.40;;;;;;;14.92;55.92;101497.56;5055971;28;20029;-45
2022/09/02 03:31:15;;;;;;;10.00;2.80;;;;;;;14.92;55.53;101489.56;5053452;28;20394;-46
2022/09/02 03:33:40;;;;;;;8.88;2.65;;;;;;;14.92;55.75;101490.44;5044055;28;20033;-45
2022/09/02 03:36:06;;;;;;;5.13;2.63;;;;;;;14.90;56.13;101494.19;5056830;28;20036;-45
2022/09/02 03:38:34;;;;;;;4.35;2.78;;;;;;;14.88;55.86;101490.81;5050572;28;20036;-46
2022/09/02 03:40:59;;;;;;;3.60;2.15;;;;;;;14.88;56.10;101488.13;5056442;28;20052;-45
2022/09/02 03:43:25;;;;;;;3.50;2.53;;;;;;;14.86;55.98;101487.44;5051168;28;20064;-44
2022/09/02 03:45:50;;;;;;;4.18;2.80;;;;;;;14.82;56.06;101481.47;5056423;28;20573;-44
2022/09/02 03:48:16;;;;;;;4.50;2.35;;;;;;;14.79;56.24;101479.06;5055238;28;20099;-44
2022/09/02 03:50:43;;;;;;;4.93;2.60;;;;;;;14.79;56.38;101481.75;5044187;28;20494;-45
2022/09/02 03:53:09;;;;;;;5.75;2.50;;;;;;;14.72;56.73;101478.75;5054981;28;20048;-44
2022/09/02 03:55:36;;;;;;;8.00;2.60;;;;;;;14.71;56.40;101479.69;5056358;28;20157;-46
2022/09/02 03:58:02;;;;;;;6.95;3.25;;;;;;;14.71;56.73;101474.34;5051728;28;20074;-45
2022/09/02 04:00:32;;;;;;;4.80;2.88;;;;;;;14.68;56.72;101474.59;5064012;28;20074;-45
2022/09/02 04:03:00;;;;;;;4.38;2.92;;;;;;;14.64;56.76;101473.19;5053588;28;20029;-47
2022/09/02 04:05:25;;;;;;;7.82;3.00;;;;;;;14.65;56.62;101474.88;5054171;28;20118;-44
2022/09/02 04:07:51;;;;;;;6.80;3.10;;;;;;;14.62;56.63;101480.47;5054403;28;20087;-44
2022/09/02 04:10:18;;;;;;;4.75;2.80;;;;;;;14.59;56.91;101476.25;5047803;28;20025;-44
2022/09/02 04:12:43;;;;;;;6.70;3.33;;;;;;;14.54;57.11;101472.22;5053529;28;20493;-45
2022/09/02 04:15:10;;;;;;;8.75;3.33;;;;;;;14.54;56.88;101472.22;5052634;28;20021;-45
2022/09/02 04:17:37;;;;;;;11.25;3.58;;;;;;;14.52;56.98;101471.50;5061884;28;20119;-45
2022/09/02 04:20:05;;;;;;;6.18;3.75;;;;;;;14.46;57.37;101467.50;5066609;28;20094;-45
2022/09/02 04:22:31;;;;;;;5.78;3.33;;;;;;;14.44;57.54;101472.97;5064395;28;20108;-45
2022/09/02 04:24:56;;;;;;;8.82;3.45;;;;;;;14.43;57.42;101465.09;5068273;28;20112;-45
2022/09/02 04:27:21;;;;;;;6.77;3.07;;;;;;;14.41;57.35;101461.69;5058888;28;20494;-45
2022/09/02 04:29:46;;;;;;;8.77;3.90;;;;;;;14.41;57.76;101467.88;5071638;28;20340;-45
2022/09/02 04:32:12;;;;;;;8.37;3.80;;;;;;;14.40;57.20;101460.00;5053311;28;20294;-45
2022/09/02 04:34:37;;;;;;;6.72;3.75;;;;;;;14.37;57.78;101465.59;5059069;28;20645;-45
2022/09/02 04:37:02;;;;;;;7.93;3.90;;;;;;;14.36;57.87;101467.44;5052436;28;20398;-46
2022/09/02 04:39:27;;;;;;;8.98;3.80;;;;;;;14.35;57.42;101460.38;5071965;28;20279;-45
2022/09/02 04:41:53;;;;;;;12.53;4.53;;;;;;;14.34;58.40;101457.81;5072683;28;20028;-45
2022/09/02 04:44:18;;;;;;;7.88;4.40;;;;;;;14.32;58.24;101462.44;5072015;28;20275;-45
2022/09/02 04:46:43;;;;;;;17.00;5.70;;;;;;;14.32;57.92;101457.97;5055146;28;20447;-45
2022/09/02 04:49:09;;;;;;;9.32;4.55;;;;;;;14.31;58.46;101460.78;5070737;28;20462;-46
2022/09/02 04:51:34;;;;;;;9.55;4.88;;;;;;;14.32;57.91;101460.66;5040471;28;20083;-47
2022/09/02 04:54:00;;;;;;;12.45;4.95;;;;;;;14.34;58.05;101457.81;5067318;28;20089;-45
2022/09/02 04:56:28;;;;;;;13.52;4.75;;;;;;;14.32;58.33;101462.44;5068763;28;20432;-44
2022/09/02 04:58:54;;;;;;;11.18;4.93;;;;;;;14.33;58.73;101465.00;5049506;28;20025;-44
2022/09/02 05:01:24;;;;;;;9.30;5.32;;;;;;;14.35;58.12;101462.19;5063766;28;20017;-45
2022/09/02 05:03:50;;;;;;;12.88;5.53;;;;;;;14.38;58.14;101461.94;5056476;28;20394;-46
2022/09/02 05:06:19;;;;;;;12.85;6.00;;;;;;;14.40;58.38;101465.34;5057925;28;20020;-45
2022/09/02 05:08:47;;;;;;;12.85;5.18;;;;;;;14.42;58.46;101468.72;5061902;28;20074;-45
2022/09/02 05:11:19;;;;;;;15.40;7.38;;;;;;;14.41;58.45;101465.22;5054725;28;20025;-44
2022/09/02 05:13:49;;;;;;;13.75;6.10;;;;;;;14.44;58.86;101459.63;5062690;28;20016;-45
2022/09/02 05:16:20;;;;;;;12.05;7.03;;;;;;;14.47;58.51;101458.53;5062798;28;20111;-45
2022/09/02 05:18:45;;;;;;;12.35;6.30;;;;;;;14.49;58.23;101459.25;5057861;28;20037;-45
2022/09/02 05:21:11;;;;;;;14.73;6.55;;;;;;;14.52;58.59;101463.47;5057135;28;20028;-44
2022/09/02 05:23:36;;;;;;;13.82;6.55;;;;;;;14.57;58.32;101466.59;5060026;28;20043;-45
2022/09/02 05:26:03;;;;;;;14.40;7.32;;;;;;;14.58;58.62;101457.63;5062421;28;20029;-46
2022/09/02 05:28:28;;;;;;;15.60;7.13;;;;;;;14.63;58.44;101462.63;5060999;28;20028;-46
2022/09/02 05:30:54;;;;;;;19.83;8.15;;;;;;;14.65;58.11;101456.16;5062042;28;20485;-44
2022/09/02 05:33:20;;;;;;;18.33;7.72;;;;;;;14.67;58.86;101464.03;5054324;28;20031;-45
2022/09/02 05:35:46;;;;;;;14.80;7.32;;;;;;;14.69;58.53;101465.63;5062162;28;20028;-46
2022/09/02 05:38:12;;;;;;;13.88;7.68;;;;;;;14.73;58.37;101460.84;5057440;28;20033;-45
2022/09/02 05:40:38;;;;;;;18.00;8.15;;;;;;;14.77;58.55;101455.13;5057179;28;20021;-46
2022/09/02 05:43:04;;;;;;;19.30;8.50;;;;;;;14.82;58.44;101456.56;5064978;28;20020;-45
2022/09/02 05:45:29;;;;;;;25.60;9.05;;;;;;;14.84;58.30;101457.25;5062467;28;20060;-45
2022/09/02 05:47:54;;;;;;;19.23;8.57;;;;;;;14.88;58.32;101464.06;5051077;28;20040;-46
2022/09/02 05:50:20;;;;;;;18.60;8.60;;;;;;;14.90;58.10;101464.78;5059409;28;20296;-45
2022/09/02 05:52:50;;;;;;;22.23;9.23;;;;;;;14.92;58.30;101463.69;5062501;28;20668;-45
2022/09/02 05:55:15;;;;;;;18.95;9.52;;;;;;;14.97;58.29;101463.25;5062403;28;20325;-44
2022/09/02 05:57:42;;;;;;;21.77;9.48;;;;;;;15.00;58.15;101457.66;5065207;28;20032;-45
2022/09/02 06:00:07;;;;;;;20.38;8.88;;;;;;;15.04;58.16;101461.78;5056036;28;20121;-45
2022/09/02 06:02:33;;;;;;;24.75;9.57;;;;;;;15.08;58.16;101459.69;5067575;28;20123;-45
2022/09/02 06:04:58;;;;;;;19.17;8.63;;;;;;;15.12;58.20;101461.97;5059074;28;20024;-44
2022/09/02 06:07:25;;;;;;;18.27;8.77;;;;;;;15.16;58.12;101459.88;5043126;28;20034;-45
2022/09/02 06:09:51;;;;;;;19.48;8.93;;;;;;;15.22;57.88;101456.69;5036399;28;20083;-43
2022/09/02 06:12:20;;;;;;;65.88;20.83;;;;;;;15.24;58.16;101457.38;5037494;28;20264;-45
2022/09/02 06:15:05;;;;;;;22.25;10.38;;;;;;;15.29;57.99;101457.81;5042887;28;20075;-45
2022/09/02 06:17:30;;;;;;;24.65;10.40;;;;;;;15.34;58.08;101450.25;5049292;28;20079;-45
2022/09/02 06:19:56;;;;;;;25.67;10.88;;;;;;;15.39;57.85;101457.88;5043122;28;20068;-45
2022/09/02 06:22:27;;;;;;;20.80;10.55;;;;;;;15.44;57.72;101452.13;5044927;28;20079;-45
2022/09/02 06:24:52;;;;;;;20.35;10.90;;;;;;;15.50;57.72;101456.91;5046635;28;20029;-46
2022/09/02 06:27:18;;;;;;;22.23;10.82;;;;;;;15.54;57.73;101451.16;5048036;28;20055;-45
2022/09/02 06:29:43;;;;;;;22.08;11.18;;;;;;;15.59;57.48;101449.91;5045415;28;20033;-45
2022/09/02 06:32:09;;;;;;;28.17;11.75;;;;;;;15.63;57.25;101457.53;5041249;28;20076;-46
2022/09/02 06:34:34;;;;;;;27.50;12.03;;;;;;;15.68;57.43;101451.78;5043256;28;20139;-45
2022/09/02 06:36:59;;;;;;;26.80;12.23;;;;;;;15.72;57.54;101454.06;5045138;28;20296;-44
2022/09/02 06:39:24;;;;;;;33.53;13.23;;;;;;;15.79;57.01;101458.91;5038454;28;20064;-44
2022/09/02 06:41:51;;;;;;;26.42;13.27;;;;;;;15.85;56.97;101456.53;5051679;28;20114;-44
2022/09/02 06:44:17;;;;;;;33.33;13.98;;;;;;;15.90;57.27;101448.94;5050098;28;20052;-44
2022/09/02 06:46:47;;;;;;;29.40;13.63;;;;;;;15.95;56.81;101447.66;5053594;28;20122;-44
2022/09/02 06:49:15;;;;;;;30.20;14.25;;;;;;;16.00;56.83;101440.88;5052300;28;20064;-44
2022/09/02 06:51:43;;;;;;;37.20;14.40;;;;;;;16.06;56.47;101437.66;5049278;28;20651;-45
2022/09/02 06:54:12;;;;;;;33.20;14.38;;;;;;;16.12;56.90;101446.13;5043974;28;20560;-44
2022/09/02 06:56:37;;;;;;;27.13;15.07;;;;;;;16.19;56.60;101439.25;5056663;28;20025;-44
2022/09/02 06:59:04;;;;;;;28.08;14.32;;;;;;;16.24;56.17;101443.19;5056268;28;20294;-48
2022/09/02 07:01:31;;;;;;;32.28;15.43;;;;;;;16.31;56.06;101440.78;5046687;28;20115;-46
2022/09/02 07:06:47;;;;;;;34.92;15.20;;;;;;;16.45;55.76;101439.50;5046517;28;20099;-46
2022/09/02 07:09:17;;;;;;;30.52;14.88;;;;;;;16.52;55.24;101434.41;5052956;28;20041;-45
2022/09/02 07:11:46;;;;;;;28.80;13.93;;;;;;;16.59;55.02;101433.72;5052910;28;20532;-45
2022/09/02 07:14:13;;;;;;;28.83;15.10;;;;;;;16.66;55.50;101434.00;5047791;28;20447;-45
2022/09/02 07:16:44;;;;;;;32.97;14.35;;;;;;;16.74;55.40;101435.97;5050408;28;20045;-45
2022/09/02 07:19:11;;;;;;;30.13;13.98;;;;;;;16.81;54.60;101429.03;5053106;28;20084;-45
2022/09/02 07:21:36;;;;;;;26.10;13.73;;;;;;;16.91;54.18;101431.75;5052318;28;20037;-45
2022/09/02 07:24:02;;;;;;;31.33;14.40;;;;;;;16.97;54.64;101429.31;5052998;28;20078;-45
2022/09/02 07:26:28;;;;;;;24.27;12.93;;;;;;;17.05;54.12;101435.78;5051146;28;20030;-46
2022/09/02 07:28:54;;;;;;;28.15;12.55;;;;;;;17.14;54.31;101441.13;5052187;28;20045;-45
2022/09/02 07:31:19;;;;;;;29.90;13.77;;;;;;;17.21;54.13;101430.66;5061045;28;20028;-45
2022/09/02 07:33:46;;;;;;;26.20;12.60;;;;;;;17.27;53.72;101426.53;5059152;28;20045;-45
2022/09/02 07:36:12;;;;;;;25.02;13.07;;;;;;;17.32;53.38;101421.56;5044375;28;20032;-45
2022/09/02 07:38:40;;;;;;;26.38;12.80;;;;;;;17.36;53.23;101425.66;5051393;28;20040;-45
2022/09/02 07:41:06;;;;;;;30.27;12.95;;;;;;;17.46;53.14;101429.13;5046416;28;20033;-46
2022/09/02 07:43:32;;;;;;;33.30;13.18;;;;;;;17.51;53.11;101429.53;5045887;28;20458;-46
2022/09/02 07:45:59;;;;;;;26.92;13.45;;;;;;;17.60;53.38;101429.63;5046858;28;20028;-46
2022/09/02 07:48:25;;;;;;;24.73;12.75;;;;;;;17.65;52.98;101416.59;5045294;28;20026;-45
2022/09/02 07:50:51;;;;;;;25.98;12.95;;;;;;;17.72;52.59;101425.78;5043008;28;20079;-45
2022/09/02 07:53:17;;;;;;;28.58;12.95;;;;;;;17.78;52.31;101429.69;5048274;28;20069;-45
2022/09/02 07:55:43;;;;;;;27.58;13.15;;;;;;;17.84;52.56;101429.94;5046853;28;20421;-45
2022/09/02 07:58:10;;;;;;;22.08;13.07;;;;;;;17.89;52.12;101427.66;5062422;28;20024;-45
2022/09/02 08:00:36;;;;;;;27.08;12.65;;;;;;;17.94;51.96;101430.75;5068700;28;20690;-47
2022/09/02 08:03:03;;;;;;;23.05;12.75;;;;;;;18.02;52.78;101421.06;5059124;28;20064;-44
2022/09/02 08:05:30;;;;;;;25.88;12.30;;;;;;;18.09;52.04;101432.91;5073045;28;20077;-45
2022/09/02 08:07:55;;;;;;;26.80;11.95;;;;;;;18.14;51.63;101422.56;5045172;28;20029;-45
2022/09/02 08:10:23;;;;;;;30.63;13.35;;;;;;;18.20;51.62;101418.38;5054099;28;20036;-45
2022/09/02 08:12:50;;;;;;;26.20;12.52;;;;;;;18.27;52.12;101419.47;5048258;28;20109;-44
2022/09/02 08:15:18;;;;;;;24.65;12.45;;;;;;;18.33;51.79;101418.00;5065552;28;20116;-45
2022/09/02 08:17:45;;;;;;;27.45;12.63;;;;;;;18.41;51.65;101418.09;5049418;28;20035;-46
2022/09/02 08:20:12;;;;;;;23.88;12.50;;;;;;;18.47;51.58;101412.09;5069588;28;20032;-45
2022/09/02 08:22:37;;;;;;;23.00;10.77;;;;;;;18.51;50.79;101416.16;5073402;28;20029;-45
2022/09/02 08:25:03;;;;;;;25.00;12.50;;;;;;;18.58;51.45;101405.59;5070350;28;20046;-46
2022/09/02 08:27:29;;;;;;;26.40;11.48;;;;;;;18.63;51.02;101405.97;5053043;28;20064;-45
2022/09/02 08:29:54;;;;;;;27.25;12.15;;;;;;;18.70;50.92;101398.97;5072837;28;20024;-46
2022/09/02 08:32:19;;;;;;;24.88;11.93;;;;;;;18.78;50.73;101406.25;5069281;28;20169;-45
2022/09/02 08:34:45;;;;;;;24.33;11.73;;;;;;;18.86;50.46;101401.78;5063127;28;20021;-46
2022/09/02 08:37:10;;;;;;;25.52;12.00;;;;;;;18.94;50.38;101405.56;5053749;28;20328;-46
2022/09/02 08:39:36;;;;;;;24.02;11.18;;;;;;;19.01;50.33;101399.38;5054271;28;20431;-45
2022/09/02 08:42:22;;;;;;;20.98;10.48;;;;;;;19.08;49.89;101396.88;5048061;28;20036;-48
2022/09/02 08:44:50;;;;;;;23.17;10.30;;;;;;;19.18;50.07;101394.06;5053485;28;20025;-48
2022/09/02 08:47:21;;;;;;;23.58;11.48;;;;;;;19.23;49.79;101399.81;5046400;28;20033;-46
2022/09/02 08:49:52;;;;;;;22.77;10.48;;;;;;;19.31;49.83;101399.84;5040531;28;20482;-46
2022/09/02 08:52:50;;;;;;;23.20;10.70;;;;;;;19.45;50.46;101400.25;5041204;28;20049;-46
2022/09/02 08:55:20;;;;;;;22.15;9.57;;;;;;;19.51;49.84;101397.75;5033873;28;20033;-46
2022/09/02 08:57:45;;;;;;;17.65;8.25;;;;;;;19.57;49.93;101405.19;5036053;28;20132;-45
2022/09/02 09:00:12;;;;;;;18.67;8.05;;;;;;;19.64;49.46;101404.53;5045595;28;20025;-45
2022/09/02 09:03:01;;;;;;;20.20;9.98;;;;;;;19.76;50.22;101397.88;5039831;28;20155;-46
2022/09/02 09:05:41;;;;;;;16.48;7.90;;;;;;;19.86;50.07;101397.72;5034351;28;20033;-45
2022/09/02 09:08:42;;;;;;;14.85;6.25;;;;;;;19.98;49.73;101414.44;5046295;28;20375;-45
2022/09/02 09:11:24;;;;;;;17.98;7.43;;;;;;;20.08;49.68;101409.72;5042523;28;20031;-46
2022/09/02 09:14:03;;;;;;;15.68;7.10;;;;;;;20.18;49.29;101405.00;5049816;28;20032;-46
2022/09/02 09:16:47;;;;;;;;;;;;;;;20.30;48.91;101406.38;5046905;28;20048;-45
2022/09/02 09:19:37;;;;;;;12.43;5.60;;;;;;;20.31;48.55;101397.25;5043812;28;19913;-46
2022/09/02 09:22:04;;;;;;;8.27;4.85;;;;;;;20.43;48.40;101399.63;5041104;28;20112;-46
2022/09/02 09:24:37;;;;;;;8.63;4.63;;;;;;;20.50;47.50;101397.94;5047850;28;20033;-45
2022/09/02 09:27:07;;;;;;;11.43;5.20;;;;;;;20.58;48.18;101403.31;5035305;28;20045;-46
2022/09/02 09:29:35;;;;;;;10.15;4.40;;;;;;;20.66;48.55;101406.03;5050624;28;20025;-46
2022/09/02 09:32:01;;;;;;;12.70;4.45;;;;;;;20.74;47.55;101399.81;5051616;28;20021;-45
2022/09/02 09:34:52;;;;;;;10.30;3.90;;;;;;;20.86;47.96;101400.28;5055825;28;20032;-47
2022/09/02 09:37:28;;;;;;;9.32;3.88;;;;;;;20.94;47.91;101392.19;5068383;28;20078;-48
2022/09/02 09:39:53;;;;;;;13.35;3.70;;;;;;;21.04;47.29;101392.81;5054487;28;20111;-47
2022/09/02 09:42:30;;;;;;;10.57;3.30;;;;;;;21.14;47.33;101384.53;5055356;28;20068;-47
2022/09/02 09:44:55;;;;;;;11.40;3.58;;;;;;;21.24;46.70;101385.16;5062387;28;20595;-50
2022/09/02 09:47:25;;;;;;;11.17;3.30;;;;;;;21.37;45.82;101387.31;5058228;28;20074;-49
2022/09/02 09:50:07;;;;;;;5.95;3.00;;;;;;;21.57;46.23;101384.22;5046782;28;20379;-50
2022/09/02 09:52:32;;;;;;;8.00;2.90;;;;;;;21.77;45.98;101381.91;5039631;28;20442;-47
2022/09/02 09:55:18;;;;;;;6.72;2.70;;;;;;;21.96;45.75;101380.59;5039829;28;20028;-49
2022/09/02 09:57:46;;;;;;;4.97;2.55;;;;;;;22.17;44.64;101379.94;5042333;28;20036;-45
2022/09/02 10:00:20;;;;;;;9.30;2.50;;;;;;;22.45;44.13;101376.66;5042587;28;20021;-45
2022/09/02 10:02:48;;;;;;;8.43;2.45;;;;;;;22.74;43.67;101373.19;5041372;28;20527;-46
2022/09/02 10:05:32;;;;;;;9.00;2.30;;;;;;;23.10;43.19;101364.38;5037207;28;20025;-46
2022/09/02 10:08:04;;;;;;;4.35;2.00;;;;;;;23.52;41.73;101360.09;5058681;28;20035;-46
2022/09/02 10:10:31;;;;;;;6.20;1.95;;;;;;;23.81;40.70;101359.19;5057266;28;20074;-45
2022/09/02 10:13:00;;;;;;;6.18;2.20;;;;;;;24.17;40.52;101354.75;5066984;28;20119;-46
2022/09/02 10:15:42;;;;;;;5.43;2.40;;;;;;;24.50;40.13;101354.19;5052328;28;20161;-45
2022/09/02 10:18:30;;;;;;;5.72;2.00;;;;;;;24.83;39.34;101354.44;5056909;28;20490;-45
2022/09/02 10:21:05;;;;;;;7.30;1.70;;;;;;;25.07;37.86;101354.97;5047455;28;20052;-45
2022/09/02 10:23:39;;;;;;;5.88;2.05;;;;;;;25.30;37.08;101358.25;5050049;28;20395;-46
2022/09/02 10:26:31;;;;;;;4.13;1.73;;;;;;;25.65;37.63;101346.44;5045375;28;20049;-46
2022/09/02 10:28:57;;;;;;;3.13;1.65;;;;;;;26.00;35.80;101340.91;5044020;28;20026;-45
2022/09/02 10:31:44;;;;;;;7.47;1.98;;;;;;;26.25;35.49;101338.38;5049299;28;20091;-47
2022/09/02 10:34:33;;;;;;;8.35;1.90;;;;;;;26.51;35.35;101334.81;5054284;28;20037;-46
2022/09/02 10:37:20;;;;;;;8.05;1.80;;;;;;;26.77;35.36;101342.13;5039824;28;20060;-48
2022/09/02 10:40:11;;;;;;;2.20;1.58;;;;;;;27.00;34.91;101331.81;5034868;28;20114;-47
2022/09/02 10:43:18;;;;;;;5.15;1.90;;;;;;;27.42;33.78;101335.81;5034922;28;20056;-46
2022/09/02 10:45:46;;;;;;;4.57;1.85;;;;;;;27.59;32.33;101321.69;5031159;28;20483;-46
2022/09/02 10:48:30;;;;;;;9.32;1.90;;;;;;;27.76;31.77;101324.72;5035303;28;20021;-46
2022/09/02 10:51:01;;;;;;;6.03;2.05;;;;;;;28.07;31.93;101325.78;5053006;28;20080;-46
2022/09/02 10:53:29;;;;;;;6.93;1.73;;;;;;;28.39;31.79;101324.66;5063815;28;20064;-46
2022/09/02 10:56:02;;;;;;;5.57;1.80;;;;;;;28.72;31.23;101319.94;5053658;28;21125;-47
2022/09/02 10:58:39;;;;;;;6.90;1.60;;;;;;;28.97;31.42;101317.13;5046696;28;20337;-45
2022/09/02 11:01:16;;;;;;;6.95;1.70;;;;;;;28.98;30.02;101316.91;5054144;28;20128;-45
2022/09/02 11:03:48;;;;;;;7.32;1.70;;;;;;;29.27;28.51;101305.44;5045243;28;20025;-45
2022/09/02 11:06:39;;;;;;;2.53;1.98;;;;;;;29.42;28.32;101305.84;5043809;28;20037;-46
2022/09/02 11:09:13;;;;;;;3.10;1.38;;;;;;;29.39;28.60;101305.47;5040003;28;20049;-45
2022/09/02 11:11:44;;;;;;;9.07;2.28;;;;;;;29.60;27.90;101301.41;5049845;28;20045;-45
2022/09/02 11:14:25;;;;;;;5.30;1.60;;;;;;;29.75;28.32;101300.97;5054912;28;20024;-45
2022/09/02 11:17:01;;;;;;;3.15;1.90;;;;;;;29.61;26.48;101294.84;5049333;28;20493;-45
2022/09/02 11:19:38;;;;;;;2.67;1.33;;;;;;;29.62;27.40;101297.34;5043202;28;20552;-44
2022/09/02 11:22:18;;;;;;;4.03;1.38;;;;;;;29.74;27.43;101282.84;5039927;28;20056;-44
2022/09/02 11:24:51;;;;;;;7.80;1.50;;;;;;;29.86;27.16;101275.50;5041241;28;20039;-44
2022/09/02 11:27:37;;;;;;;3.97;1.50;;;;;;;30.00;26.73;101271.50;5044779;28;20025;-44
2022/09/02 11:30:11;;;;;;;4.35;1.52;;;;;;;30.16;26.59;101274.59;5057592;28;20465;-44
2022/09/02 11:32:43;;;;;;;3.53;1.50;;;;;;;30.12;24.55;101270.66;5064749;28;20029;-44
2022/09/02 11:35:15;;;;;;;3.53;1.55;;;;;;;30.11;24.76;101272.59;5068266;28;20160;-44